sensor_id;sensor_type;location;lat;lon;timestamp;P1;durP1;ratioP1;P2;durP2;ratioP2
13002;SDS011;6566;57.702;11.984;2022-09-12T00:02:12;4.75;;;3.30;;
13002;SDS011;6566;57.702;11.984;2022-09-12T00:04:37;5.18;;;3.55;;
13002;SDS011;6566;57.702;11.984;2022-09-12T00:07:04;5.53;;;3.35;;
13002;SDS011;6566;57.702;11.984;2022-09-12T00:09:30;4.05;;;3.00;;
13002;SDS011;6566;57.702;11.984;2022-09-12T00:11:55;5.47;;;3.28;;
13002;SDS011;6566;57.702;11.984;2022-09-12T00:14:22;6.50;;;3.13;;
13002;SDS011;6566;57.702;11.984;2022-09-12T00:16:49;6.03;;;3.70;;
13002;SDS011;6566;57.702;11.984;2022-09-12T00:19:15;5.80;;;3.45;;
13002;SDS011;6566;57.702;11.984;2022-09-12T00:21:41;4.75;;;3.30;;
13002;SDS011;6566;57.702;11.984;2022-09-12T00:24:09;4.72;;;3.10;;
13002;SDS011;6566;57.702;11.984;2022-09-12T00:26:36;5.32;;;3.33;;
13002;SDS011;6566;57.702;11.984;2022-09-12T00:29:02;4.95;;;3.40;;
13002;SDS011;6566;57.702;11.984;2022-09-12T00:31:29;3.38;;;2.75;;
13002;SDS011;6566;57.702;11.984;2022-09-12T00:33:56;4.00;;;3.08;;
13002;SDS011;6566;57.702;11.984;2022-09-12T00:36:23;6.13;;;2.97;;
13002;SDS011;6566;57.702;11.984;2022-09-12T00:38:51;6.68;;;3.25;;
13002;SDS011;6566;57.702;11.984;2022-09-12T00:41:18;5.03;;;3.35;;
13002;SDS011;6566;57.702;11.984;2022-09-12T00:43:45;5.05;;;2.97;;
13002;SDS011;6566;57.702;11.984;2022-09-12T00:48:57;6.75;;;3.10;;
13002;SDS011;6566;57.702;11.984;2022-09-12T00:51:24;6.10;;;2.88;;
13002;SDS011;6566;57.702;11.984;2022-09-12T00:53:52;5.93;;;2.85;;
13002;SDS011;6566;57.702;11.984;2022-09-12T00:56:19;4.50;;;3.20;;
13002;SDS011;6566;57.702;11.984;2022-09-12T00:58:51;4.78;;;3.33;;
13002;SDS011;6566;57.702;11.984;2022-09-12T01:01:19;4.90;;;3.20;;
13002;SDS011;6566;57.702;11.984;2022-09-12T01:03:46;4.93;;;3.00;;
13002;SDS011;6566;57.702;11.984;2022-09-12T01:06:20;3.65;;;2.92;;
13002;SDS011;6566;57.702;11.984;2022-09-12T01:08:49;3.45;;;3.10;;
13002;SDS011;6566;57.702;11.984;2022-09-12T01:11:15;4.97;;;3.22;;
13002;SDS011;6566;57.702;11.984;2022-09-12T01:13:45;4.78;;;2.95;;
13002;SDS011;6566;57.702;11.984;2022-09-12T01:16:11;6.32;;;2.90;;
13002;SDS011;6566;57.702;11.984;2022-09-12T01:21:43;5.63;;;3.15;;
13002;SDS011;6566;57.702;11.984;2022-09-12T01:30:04;5.03;;;3.20;;
13002;SDS011;6566;57.702;11.984;2022-09-12T01:37:54;3.35;;;2.85;;
13002;SDS011;6566;57.702;11.984;2022-09-12T01:43:17;4.90;;;2.80;;
13002;SDS011;6566;57.702;11.984;2022-09-12T01:46:26;4.82;;;3.00;;
13002;SDS011;6566;57.702;11.984;2022-09-12T01:51:35;6.32;;;2.90;;
13002;SDS011;6566;57.702;11.984;2022-09-12T01:54:10;3.38;;;3.08;;
13002;SDS011;6566;57.702;11.984;2022-09-12T01:56:39;4.60;;;2.90;;
13002;SDS011;6566;57.702;11.984;2022-09-12T01:59:19;5.85;;;2.80;;
13002;SDS011;6566;57.702;11.984;2022-09-12T02:01:51;4.25;;;2.88;;
13002;SDS011;6566;57.702;11.984;2022-09-12T02:04:22;3.58;;;2.75;;
13002;SDS011;6566;57.702;11.984;2022-09-12T02:06:57;4.65;;;2.97;;
13002;SDS011;6566;57.702;11.984;2022-09-12T02:09:28;5.43;;;3.05;;
13002;SDS011;6566;57.702;11.984;2022-09-12T02:11:58;5.20;;;2.63;;
13002;SDS011;6566;57.702;11.984;2022-09-12T02:14:30;4.95;;;2.72;;
13002;SDS011;6566;57.702;11.984;2022-09-12T02:17:02;3.10;;;2.45;;
13002;SDS011;6566;57.702;11.984;2022-09-12T02:19:31;4.70;;;2.97;;
13002;SDS011;6566;57.702;11.984;2022-09-12T02:22:00;3.60;;;2.83;;
13002;SDS011;6566;57.702;11.984;2022-09-12T02:24:47;3.28;;;2.83;;
13002;SDS011;6566;57.702;11.984;2022-09-12T02:27:15;4.97;;;2.65;;
13002;SDS011;6566;57.702;11.984;2022-09-12T02:29:43;2.92;;;2.50;;
13002;SDS011;6566;57.702;11.984;2022-09-12T02:32:11;3.63;;;2.72;;
13002;SDS011;6566;57.702;11.984;2022-09-12T02:34:50;5.10;;;2.97;;
13002;SDS011;6566;57.702;11.984;2022-09-12T02:37:30;5.55;;;2.90;;
13002;SDS011;6566;57.702;11.984;2022-09-12T02:39:58;3.40;;;2.63;;
13002;SDS011;6566;57.702;11.984;2022-09-12T02:42:25;4.95;;;2.72;;
13002;SDS011;6566;57.702;11.984;2022-09-12T02:44:53;4.65;;;2.63;;
13002;SDS011;6566;57.702;11.984;2022-09-12T02:47:25;6.35;;;2.60;;
13002;SDS011;6566;57.702;11.984;2022-09-12T02:50:01;3.97;;;2.80;;
13002;SDS011;6566;57.702;11.984;2022-09-12T02:52:30;4.07;;;2.95;;
13002;SDS011;6566;57.702;11.984;2022-09-12T02:54:57;3.08;;;2.53;;
13002;SDS011;6566;57.702;11.984;2022-09-12T02:57:24;2.92;;;2.47;;
13002;SDS011;6566;57.702;11.984;2022-09-12T02:59:52;4.13;;;2.63;;
13002;SDS011;6566;57.702;11.984;2022-09-12T03:02:28;3.40;;;2.80;;
13002;SDS011;6566;57.702;11.984;2022-09-12T03:10:31;4.20;;;2.83;;
13002;SDS011;6566;57.702;11.984;2022-09-12T03:21:30;3.90;;;2.63;;
13002;SDS011;6566;57.702;11.984;2022-09-12T03:26:53;3.30;;;2.53;;
13002;SDS011;6566;57.702;11.984;2022-09-12T03:29:30;6.07;;;2.50;;
13002;SDS011;6566;57.702;11.984;2022-09-12T03:31:57;4.05;;;2.60;;
13002;SDS011;6566;57.702;11.984;2022-09-12T03:34:27;3.55;;;2.45;;
13002;SDS011;6566;57.702;11.984;2022-09-12T03:36:53;4.05;;;2.50;;
13002;SDS011;6566;57.702;11.984;2022-09-12T03:39:23;5.93;;;2.95;;
13002;SDS011;6566;57.702;11.984;2022-09-12T03:41:51;5.80;;;2.78;;
13002;SDS011;6566;57.702;11.984;2022-09-12T03:44:18;4.07;;;2.70;;
13002;SDS011;6566;57.702;11.984;2022-09-12T03:46:45;7.75;;;2.72;;
13002;SDS011;6566;57.702;11.984;2022-09-12T03:49:11;3.35;;;2.80;;
13002;SDS011;6566;57.702;11.984;2022-09-12T03:51:38;3.47;;;2.53;;
13002;SDS011;6566;57.702;11.984;2022-09-12T03:54:05;5.28;;;3.28;;
13002;SDS011;6566;57.702;11.984;2022-09-12T03:56:31;5.30;;;2.90;;
13002;SDS011;6566;57.702;11.984;2022-09-12T03:58:58;6.40;;;2.58;;
13002;SDS011;6566;57.702;11.984;2022-09-12T04:01:24;5.68;;;2.90;;
13002;SDS011;6566;57.702;11.984;2022-09-12T04:03:51;2.88;;;2.53;;
13002;SDS011;6566;57.702;11.984;2022-09-12T04:06:21;4.05;;;2.70;;
13002;SDS011;6566;57.702;11.984;2022-09-12T04:08:49;6.15;;;2.97;;
13002;SDS011;6566;57.702;11.984;2022-09-12T04:11:15;5.45;;;2.90;;
13002;SDS011;6566;57.702;11.984;2022-09-12T04:13:42;6.05;;;2.65;;
13002;SDS011;6566;57.702;11.984;2022-09-12T04:16:10;3.60;;;2.70;;
13002;SDS011;6566;57.702;11.984;2022-09-12T04:18:37;6.05;;;2.75;;
13002;SDS011;6566;57.702;11.984;2022-09-12T04:21:08;3.78;;;2.30;;
13002;SDS011;6566;57.702;11.984;2022-09-12T04:23:34;4.00;;;2.80;;
13002;SDS011;6566;57.702;11.984;2022-09-12T04:26:00;4.60;;;2.90;;
13002;SDS011;6566;57.702;11.984;2022-09-12T04:28:27;3.50;;;2.85;;
13002;SDS011;6566;57.702;11.984;2022-09-12T04:30:55;5.70;;;3.08;;
13002;SDS011;6566;57.702;11.984;2022-09-12T04:33:21;3.72;;;2.78;;
13002;SDS011;6566;57.702;11.984;2022-09-12T04:35:47;3.40;;;2.83;;
13002;SDS011;6566;57.702;11.984;2022-09-12T04:38:14;4.18;;;3.03;;
13002;SDS011;6566;57.702;11.984;2022-09-12T04:40:40;5.85;;;3.17;;
13002;SDS011;6566;57.702;11.984;2022-09-12T04:43:05;3.50;;;2.75;;
13002;SDS011;6566;57.702;11.984;2022-09-12T04:45:31;4.72;;;2.90;;
13002;SDS011;6566;57.702;11.984;2022-09-12T04:47:58;4.85;;;3.03;;
13002;SDS011;6566;57.702;11.984;2022-09-12T04:50:25;3.55;;;2.63;;
13002;SDS011;6566;57.702;11.984;2022-09-12T04:52:52;5.28;;;2.95;;
13002;SDS011;6566;57.702;11.984;2022-09-12T04:55:19;3.95;;;3.10;;
13002;SDS011;6566;57.702;11.984;2022-09-12T04:57:46;4.75;;;2.83;;
13002;SDS011;6566;57.702;11.984;2022-09-12T05:00:12;5.32;;;3.10;;
13002;SDS011;6566;57.702;11.984;2022-09-12T05:02:42;4.63;;;2.92;;
13002;SDS011;6566;57.702;11.984;2022-09-12T05:05:09;3.17;;;2.85;;
13002;SDS011;6566;57.702;11.984;2022-09-12T05:07:36;5.50;;;2.80;;
13002;SDS011;6566;57.702;11.984;2022-09-12T05:10:03;3.70;;;3.38;;
13002;SDS011;6566;57.702;11.984;2022-09-12T05:12:30;4.65;;;2.70;;
13002;SDS011;6566;57.702;11.984;2022-09-12T05:14:56;5.90;;;3.03;;
13002;SDS011;6566;57.702;11.984;2022-09-12T05:17:23;3.90;;;2.70;;
13002;SDS011;6566;57.702;11.984;2022-09-12T05:19:49;3.53;;;2.63;;
13002;SDS011;6566;57.702;11.984;2022-09-12T05:22:16;5.65;;;3.13;;
13002;SDS011;6566;57.702;11.984;2022-09-12T05:24:41;3.38;;;3.00;;
13002;SDS011;6566;57.702;11.984;2022-09-12T05:27:10;6.30;;;2.97;;
13002;SDS011;6566;57.702;11.984;2022-09-12T05:29:37;5.15;;;2.80;;
13002;SDS011;6566;57.702;11.984;2022-09-12T05:32:03;3.83;;;2.85;;
13002;SDS011;6566;57.702;11.984;2022-09-12T05:34:30;5.93;;;3.20;;
13002;SDS011;6566;57.702;11.984;2022-09-12T05:36:56;3.53;;;2.92;;
13002;SDS011;6566;57.702;11.984;2022-09-12T05:39:22;4.68;;;3.33;;
13002;SDS011;6566;57.702;11.984;2022-09-12T05:41:48;5.03;;;3.25;;
13002;SDS011;6566;57.702;11.984;2022-09-12T05:44:16;5.00;;;3.80;;
13002;SDS011;6566;57.702;11.984;2022-09-12T05:46:43;5.53;;;3.50;;
13002;SDS011;6566;57.702;11.984;2022-09-12T05:49:11;7.45;;;3.65;;
13002;SDS011;6566;57.702;11.984;2022-09-12T05:51:39;8.57;;;3.00;;
13002;SDS011;6566;57.702;11.984;2022-09-12T05:54:12;6.05;;;3.20;;
13002;SDS011;6566;57.702;11.984;2022-09-12T05:56:40;4.45;;;3.38;;
13002;SDS011;6566;57.702;11.984;2022-09-12T05:59:17;11.27;;;3.40;;
13002;SDS011;6566;57.702;11.984;2022-09-12T06:01:43;7.35;;;3.63;;
13002;SDS011;6566;57.702;11.984;2022-09-12T06:04:11;4.68;;;3.30;;
13002;SDS011;6566;57.702;11.984;2022-09-12T06:06:39;6.18;;;3.65;;
13002;SDS011;6566;57.702;11.984;2022-09-12T06:09:07;6.15;;;3.53;;
13002;SDS011;6566;57.702;11.984;2022-09-12T06:11:34;7.30;;;3.75;;
13002;SDS011;6566;57.702;11.984;2022-09-12T06:14:01;4.65;;;3.17;;
13002;SDS011;6566;57.702;11.984;2022-09-12T06:16:28;6.32;;;4.50;;
13002;SDS011;6566;57.702;11.984;2022-09-12T06:18:56;8.32;;;4.93;;
13002;SDS011;6566;57.702;11.984;2022-09-12T06:21:22;10.65;;;4.60;;
13002;SDS011;6566;57.702;11.984;2022-09-12T06:23:49;12.45;;;5.03;;
13002;SDS011;6566;57.702;11.984;2022-09-12T06:26:16;6.38;;;4.50;;
13002;SDS011;6566;57.702;11.984;2022-09-12T06:28:43;5.32;;;3.75;;
13002;SDS011;6566;57.702;11.984;2022-09-12T06:31:14;4.80;;;3.60;;
13002;SDS011;6566;57.702;11.984;2022-09-12T06:33:42;5.50;;;3.67;;
13002;SDS011;6566;57.702;11.984;2022-09-12T06:36:13;10.27;;;3.60;;
13002;SDS011;6566;57.702;11.984;2022-09-12T06:38:41;7.55;;;3.92;;
13002;SDS011;6566;57.702;11.984;2022-09-12T06:41:09;6.43;;;3.70;;
13002;SDS011;6566;57.702;11.984;2022-09-12T06:43:39;6.78;;;3.85;;
13002;SDS011;6566;57.702;11.984;2022-09-12T06:46:06;7.00;;;3.53;;
13002;SDS011;6566;57.702;11.984;2022-09-12T06:48:33;5.35;;;3.53;;
13002;SDS011;6566;57.702;11.984;2022-09-12T06:50:59;3.30;;;2.92;;
13002;SDS011;6566;57.702;11.984;2022-09-12T06:53:27;7.63;;;3.67;;
13002;SDS011;6566;57.702;11.984;2022-09-12T06:56:00;6.22;;;3.58;;
13002;SDS011;6566;57.702;11.984;2022-09-12T06:58:27;3.92;;;3.15;;
13002;SDS011;6566;57.702;11.984;2022-09-12T07:01:04;4.50;;;3.28;;
13002;SDS011;6566;57.702;11.984;2022-09-12T07:03:31;6.25;;;3.67;;
13002;SDS011;6566;57.702;11.984;2022-09-12T07:06:19;5.43;;;3.58;;
13002;SDS011;6566;57.702;11.984;2022-09-12T07:08:45;6.35;;;3.50;;
13002;SDS011;6566;57.702;11.984;2022-09-12T07:11:21;6.13;;;3.88;;
13002;SDS011;6566;57.702;11.984;2022-09-12T07:13:49;5.75;;;3.30;;
13002;SDS011;6566;57.702;11.984;2022-09-12T07:16:16;3.97;;;3.25;;
13002;SDS011;6566;57.702;11.984;2022-09-12T07:18:49;6.35;;;3.60;;
13002;SDS011;6566;57.702;11.984;2022-09-12T07:21:16;8.02;;;3.35;;
13002;SDS011;6566;57.702;11.984;2022-09-12T07:23:43;6.43;;;3.70;;
13002;SDS011;6566;57.702;11.984;2022-09-12T07:26:10;5.20;;;3.42;;
13002;SDS011;6566;57.702;11.984;2022-09-12T07:28:37;6.43;;;3.65;;
13002;SDS011;6566;57.702;11.984;2022-09-12T07:31:03;3.88;;;3.47;;
13002;SDS011;6566;57.702;11.984;2022-09-12T07:33:31;5.05;;;3.30;;
13002;SDS011;6566;57.702;11.984;2022-09-12T07:36:00;5.22;;;3.38;;
13002;SDS011;6566;57.702;11.984;2022-09-12T07:38:29;6.13;;;3.45;;
13002;SDS011;6566;57.702;11.984;2022-09-12T07:40:55;5.72;;;3.70;;
13002;SDS011;6566;57.702;11.984;2022-09-12T07:43:22;7.55;;;4.03;;
13002;SDS011;6566;57.702;11.984;2022-09-12T07:45:53;5.65;;;4.00;;
13002;SDS011;6566;57.702;11.984;2022-09-12T07:48:20;6.65;;;3.83;;
13002;SDS011;6566;57.702;11.984;2022-09-12T07:50:47;9.90;;;3.30;;
13002;SDS011;6566;57.702;11.984;2022-09-12T07:53:13;4.57;;;3.97;;
13002;SDS011;6566;57.702;11.984;2022-09-12T07:55:40;4.57;;;3.05;;
13002;SDS011;6566;57.702;11.984;2022-09-12T07:58:07;7.47;;;3.80;;
13002;SDS011;6566;57.702;11.984;2022-09-12T08:00:33;4.72;;;3.67;;
13002;SDS011;6566;57.702;11.984;2022-09-12T08:03:03;5.28;;;3.42;;
13002;SDS011;6566;57.702;11.984;2022-09-12T08:05:32;5.88;;;3.63;;
13002;SDS011;6566;57.702;11.984;2022-09-12T08:07:59;3.92;;;3.47;;
13002;SDS011;6566;57.702;11.984;2022-09-12T08:10:25;7.75;;;3.45;;
13002;SDS011;6566;57.702;11.984;2022-09-12T08:12:51;4.90;;;3.42;;
13002;SDS011;6566;57.702;11.984;2022-09-12T08:15:18;5.32;;;3.50;;
13002;SDS011;6566;57.702;11.984;2022-09-12T08:17:45;4.32;;;3.20;;
13002;SDS011;6566;57.702;11.984;2022-09-12T08:20:12;6.07;;;3.03;;
13002;SDS011;6566;57.702;11.984;2022-09-12T08:22:39;3.72;;;2.80;;
13002;SDS011;6566;57.702;11.984;2022-09-12T08:25:06;5.43;;;2.72;;
13002;SDS011;6566;57.702;11.984;2022-09-12T08:27:34;4.75;;;2.90;;
13002;SDS011;6566;57.702;11.984;2022-09-12T08:30:00;3.38;;;2.72;;
13002;SDS011;6566;57.702;11.984;2022-09-12T08:32:27;5.35;;;2.78;;
13002;SDS011;6566;57.702;11.984;2022-09-12T08:34:53;2.08;;;1.80;;
13002;SDS011;6566;57.702;11.984;2022-09-12T08:37:20;3.72;;;1.80;;
13002;SDS011;6566;57.702;11.984;2022-09-12T08:39:48;3.30;;;1.90;;
13002;SDS011;6566;57.702;11.984;2022-09-12T08:42:17;2.67;;;1.92;;
13002;SDS011;6566;57.702;11.984;2022-09-12T08:47:36;2.13;;;1.95;;
13002;SDS011;6566;57.702;11.984;2022-09-12T08:50:13;2.33;;;2.00;;
13002;SDS011;6566;57.702;11.984;2022-09-12T08:57:47;2.78;;;1.98;;
13002;SDS011;6566;57.702;11.984;2022-09-12T09:00:14;4.53;;;2.03;;
13002;SDS011;6566;57.702;11.984;2022-09-12T09:08:08;1.58;;;1.33;;
13002;SDS011;6566;57.702;11.984;2022-09-12T09:16:37;1.27;;;1.17;;
13002;SDS011;6566;57.702;11.984;2022-09-12T09:19:16;1.83;;;1.33;;
13002;SDS011;6566;57.702;11.984;2022-09-12T09:21:59;1.80;;;1.48;;
13002;SDS011;6566;57.702;11.984;2022-09-12T09:24:27;1.80;;;1.35;;
13002;SDS011;6566;57.702;11.984;2022-09-12T09:27:12;4.00;;;1.77;;
13002;SDS011;6566;57.702;11.984;2022-09-12T09:29:43;5.07;;;1.48;;
13002;SDS011;6566;57.702;11.984;2022-09-12T09:41:03;2.65;;;1.55;;
13002;SDS011;6566;57.702;11.984;2022-09-12T09:43:32;1.75;;;1.40;;
13002;SDS011;6566;57.702;11.984;2022-09-12T09:45:59;2.08;;;1.65;;
13002;SDS011;6566;57.702;11.984;2022-09-12T09:48:33;2.33;;;1.60;;
13002;SDS011;6566;57.702;11.984;2022-09-12T09:51:01;2.22;;;1.90;;
13002;SDS011;6566;57.702;11.984;2022-09-12T09:56:17;2.42;;;2.00;;
13002;SDS011;6566;57.702;11.984;2022-09-12T09:58:48;3.17;;;1.98;;
13002;SDS011;6566;57.702;11.984;2022-09-12T10:01:14;2.40;;;1.60;;
13002;SDS011;6566;57.702;11.984;2022-09-12T10:03:53;2.58;;;2.00;;
13002;SDS011;6566;57.702;11.984;2022-09-12T10:06:32;2.70;;;2.13;;
13002;SDS011;6566;57.702;11.984;2022-09-12T10:09:33;4.22;;;2.20;;
13002;SDS011;6566;57.702;11.984;2022-09-12T10:11:53;3.15;;;2.08;;
13002;SDS011;6566;57.702;11.984;2022-09-12T10:14:39;2.65;;;1.75;;
13002;SDS011;6566;57.702;11.984;2022-09-12T10:17:23;3.83;;;1.83;;
13002;SDS011;6566;57.702;11.984;2022-09-12T10:19:50;3.45;;;2.25;;
13002;SDS011;6566;57.702;11.984;2022-09-12T10:22:17;3.70;;;2.10;;
13002;SDS011;6566;57.702;11.984;2022-09-12T10:24:52;4.22;;;2.05;;
13002;SDS011;6566;57.702;11.984;2022-09-12T10:27:27;7.15;;;2.47;;
13002;SDS011;6566;57.702;11.984;2022-09-12T10:30:06;5.30;;;2.42;;
13002;SDS011;6566;57.702;11.984;2022-09-12T10:32:41;3.88;;;2.38;;
13002;SDS011;6566;57.702;11.984;2022-09-12T10:35:30;4.05;;;2.33;;
13002;SDS011;6566;57.702;11.984;2022-09-12T10:40:30;4.35;;;2.25;;
13002;SDS011;6566;57.702;11.984;2022-09-12T10:43:00;3.72;;;2.10;;
13002;SDS011;6566;57.702;11.984;2022-09-12T10:45:31;2.78;;;2.10;;
13002;SDS011;6566;57.702;11.984;2022-09-12T10:48:02;4.45;;;2.20;;
13002;SDS011;6566;57.702;11.984;2022-09-12T10:50:37;3.45;;;2.00;;
13002;SDS011;6566;57.702;11.984;2022-09-12T10:53:17;3.78;;;1.90;;
13002;SDS011;6566;57.702;11.984;2022-09-12T10:55:53;2.17;;;1.77;;
13002;SDS011;6566;57.702;11.984;2022-09-12T11:00:52;3.30;;;1.88;;
13002;SDS011;6566;57.702;11.984;2022-09-12T11:03:23;2.22;;;1.67;;
13002;SDS011;6566;57.702;11.984;2022-09-12T11:06:00;3.72;;;1.88;;
13002;SDS011;6566;57.702;11.984;2022-09-12T11:17:08;2.38;;;1.90;;
13002;SDS011;6566;57.702;11.984;2022-09-12T11:20:41;6.93;;;1.90;;
13002;SDS011;6566;57.702;11.984;2022-09-12T11:33:39;4.35;;;1.90;;
13002;SDS011;6566;57.702;11.984;2022-09-12T11:36:08;2.47;;;2.00;;
13002;SDS011;6566;57.702;11.984;2022-09-12T11:38:51;2.05;;;1.70;;
13002;SDS011;6566;57.702;11.984;2022-09-12T11:41:26;1.40;;;1.30;;
13002;SDS011;6566;57.702;11.984;2022-09-12T11:44:31;1.88;;;1.67;;
13002;SDS011;6566;57.702;11.984;2022-09-12T11:46:48;3.05;;;1.60;;
13002;SDS011;6566;57.702;11.984;2022-09-12T11:49:18;4.75;;;1.75;;
13002;SDS011;6566;57.702;11.984;2022-09-12T11:54:37;5.28;;;2.00;;
13002;SDS011;6566;57.702;11.984;2022-09-12T12:02:35;5.55;;;2.03;;
13002;SDS011;6566;57.702;11.984;2022-09-12T12:07:58;2.70;;;1.80;;
13002;SDS011;6566;57.702;11.984;2022-09-12T12:10:37;2.97;;;1.80;;
13002;SDS011;6566;57.702;11.984;2022-09-12T12:13:46;2.90;;;1.80;;
13002;SDS011;6566;57.702;11.984;2022-09-12T12:15:56;2.60;;;1.80;;
13002;SDS011;6566;57.702;11.984;2022-09-12T12:18:30;2.33;;;1.23;;
13002;SDS011;6566;57.702;11.984;2022-09-12T12:21:43;3.47;;;1.80;;
13002;SDS011;6566;57.702;11.984;2022-09-12T12:34:37;3.05;;;1.65;;
13002;SDS011;6566;57.702;11.984;2022-09-12T12:52:42;2.88;;;1.90;;
13002;SDS011;6566;57.702;11.984;2022-09-12T12:55:20;5.35;;;1.77;;
13002;SDS011;6566;57.702;11.984;2022-09-12T12:57:48;4.38;;;2.15;;
13002;SDS011;6566;57.702;11.984;2022-09-12T13:02:55;5.95;;;1.98;;
13002;SDS011;6566;57.702;11.984;2022-09-12T13:05:28;5.28;;;2.20;;
13002;SDS011;6566;57.702;11.984;2022-09-12T13:08:02;3.17;;;2.15;;
13002;SDS011;6566;57.702;11.984;2022-09-12T13:10:36;2.63;;;1.90;;
13002;SDS011;6566;57.702;11.984;2022-09-12T13:13:03;5.32;;;2.20;;
13002;SDS011;6566;57.702;11.984;2022-09-12T13:15:45;8.43;;;2.25;;
13002;SDS011;6566;57.702;11.984;2022-09-12T13:18:16;1.77;;;1.58;;
13002;SDS011;6566;57.702;11.984;2022-09-12T13:23:30;2.63;;;1.77;;
13002;SDS011;6566;57.702;11.984;2022-09-12T13:25:57;4.90;;;1.90;;
13002;SDS011;6566;57.702;11.984;2022-09-12T13:28:25;3.03;;;2.10;;
13002;SDS011;6566;57.702;11.984;2022-09-12T13:33:40;3.85;;;1.88;;
13002;SDS011;6566;57.702;11.984;2022-09-12T13:44:13;3.35;;;2.00;;
13002;SDS011;6566;57.702;11.984;2022-09-12T13:46:41;4.40;;;2.28;;
13002;SDS011;6566;57.702;11.984;2022-09-12T13:49:26;4.22;;;2.50;;
13002;SDS011;6566;57.702;11.984;2022-09-12T13:52:03;3.38;;;2.75;;
13002;SDS011;6566;57.702;11.984;2022-09-12T13:54:40;4.38;;;2.38;;
13002;SDS011;6566;57.702;11.984;2022-09-12T13:57:25;5.13;;;2.40;;
13002;SDS011;6566;57.702;11.984;2022-09-12T13:59:53;3.50;;;2.03;;
13002;SDS011;6566;57.702;11.984;2022-09-12T14:02:23;4.50;;;2.35;;
13002;SDS011;6566;57.702;11.984;2022-09-12T14:04:51;3.15;;;2.08;;
13002;SDS011;6566;57.702;11.984;2022-09-12T14:10:31;6.38;;;2.30;;
13002;SDS011;6566;57.702;11.984;2022-09-12T14:12:58;4.78;;;2.22;;
13002;SDS011;6566;57.702;11.984;2022-09-12T14:15:30;3.83;;;2.22;;
13002;SDS011;6566;57.702;11.984;2022-09-12T14:17:59;5.90;;;2.38;;
13002;SDS011;6566;57.702;11.984;2022-09-12T14:20:28;5.45;;;2.30;;
13002;SDS011;6566;57.702;11.984;2022-09-12T14:23:01;5.95;;;3.00;;
13002;SDS011;6566;57.702;11.984;2022-09-12T14:25:31;3.35;;;2.53;;
13002;SDS011;6566;57.702;11.984;2022-09-12T14:28:00;5.47;;;2.35;;
13002;SDS011;6566;57.702;11.984;2022-09-12T14:30:33;4.78;;;2.50;;
13002;SDS011;6566;57.702;11.984;2022-09-12T14:35:49;5.68;;;2.53;;
13002;SDS011;6566;57.702;11.984;2022-09-12T14:38:20;3.47;;;2.05;;
13002;SDS011;6566;57.702;11.984;2022-09-12T14:40:48;4.18;;;2.50;;
13002;SDS011;6566;57.702;11.984;2022-09-12T14:46:03;3.97;;;2.33;;
13002;SDS011;6566;57.702;11.984;2022-09-12T14:48:33;2.58;;;2.35;;
13002;SDS011;6566;57.702;11.984;2022-09-12T14:51:00;3.90;;;2.45;;
13002;SDS011;6566;57.702;11.984;2022-09-12T14:53:33;3.55;;;2.40;;
13002;SDS011;6566;57.702;11.984;2022-09-12T14:56:10;6.15;;;2.80;;
13002;SDS011;6566;57.702;11.984;2022-09-12T14:58:37;5.38;;;2.38;;
13002;SDS011;6566;57.702;11.984;2022-09-12T15:06:17;5.78;;;2.45;;
13002;SDS011;6566;57.702;11.984;2022-09-12T15:08:45;6.88;;;2.58;;
13002;SDS011;6566;57.702;11.984;2022-09-12T15:11:12;4.32;;;2.25;;
13002;SDS011;6566;57.702;11.984;2022-09-12T15:13:39;4.93;;;2.35;;
13002;SDS011;6566;57.702;11.984;2022-09-12T15:16:08;5.05;;;2.40;;
13002;SDS011;6566;57.702;11.984;2022-09-12T15:18:35;2.88;;;1.95;;
13002;SDS011;6566;57.702;11.984;2022-09-12T15:21:02;3.92;;;2.03;;
13002;SDS011;6566;57.702;11.984;2022-09-12T15:23:32;2.50;;;1.98;;
13002;SDS011;6566;57.702;11.984;2022-09-12T15:26:01;6.45;;;2.33;;
13002;SDS011;6566;57.702;11.984;2022-09-12T15:28:28;6.60;;;2.40;;
13002;SDS011;6566;57.702;11.984;2022-09-12T15:30:55;5.45;;;2.08;;
13002;SDS011;6566;57.702;11.984;2022-09-12T15:33:23;2.85;;;2.28;;
13002;SDS011;6566;57.702;11.984;2022-09-12T15:35:50;5.80;;;2.30;;
13002;SDS011;6566;57.702;11.984;2022-09-12T15:38:17;2.22;;;2.03;;
13002;SDS011;6566;57.702;11.984;2022-09-12T15:40:44;4.90;;;2.50;;
13002;SDS011;6566;57.702;11.984;2022-09-12T15:43:16;3.50;;;2.30;;
13002;SDS011;6566;57.702;11.984;2022-09-12T15:45:42;7.35;;;2.10;;
13002;SDS011;6566;57.702;11.984;2022-09-12T15:48:08;5.75;;;2.90;;
13002;SDS011;6566;57.702;11.984;2022-09-12T15:50:35;3.80;;;2.92;;
13002;SDS011;6566;57.702;11.984;2022-09-12T15:53:02;5.65;;;2.60;;
13002;SDS011;6566;57.702;11.984;2022-09-12T15:55:30;3.00;;;2.22;;
13002;SDS011;6566;57.702;11.984;2022-09-12T15:57:57;3.97;;;2.78;;
13002;SDS011;6566;57.702;11.984;2022-09-12T16:00:24;3.92;;;2.90;;
13002;SDS011;6566;57.702;11.984;2022-09-12T16:02:51;3.15;;;2.47;;
13002;SDS011;6566;57.702;11.984;2022-09-12T16:05:20;5.43;;;2.67;;
13002;SDS011;6566;57.702;11.984;2022-09-12T16:07:56;3.58;;;2.70;;
13002;SDS011;6566;57.702;11.984;2022-09-12T16:10:23;6.60;;;2.65;;
13002;SDS011;6566;57.702;11.984;2022-09-12T16:12:50;3.95;;;3.08;;
13002;SDS011;6566;57.702;11.984;2022-09-12T16:15:18;4.47;;;2.38;;
13002;SDS011;6566;57.702;11.984;2022-09-12T16:17:45;4.57;;;2.58;;
13002;SDS011;6566;57.702;11.984;2022-09-12T16:20:12;4.80;;;2.58;;
13002;SDS011;6566;57.702;11.984;2022-09-12T16:22:38;3.85;;;2.70;;
13002;SDS011;6566;57.702;11.984;2022-09-12T16:25:06;3.22;;;2.30;;
13002;SDS011;6566;57.702;11.984;2022-09-12T16:27:33;7.35;;;2.47;;
13002;SDS011;6566;57.702;11.984;2022-09-12T16:30:00;5.07;;;2.30;;
13002;SDS011;6566;57.702;11.984;2022-09-12T16:32:26;2.25;;;2.05;;
13002;SDS011;6566;57.702;11.984;2022-09-12T16:34:52;7.95;;;2.47;;
13002;SDS011;6566;57.702;11.984;2022-09-12T16:37:19;2.55;;;2.00;;
13002;SDS011;6566;57.702;11.984;2022-09-12T16:39:45;2.47;;;2.13;;
13002;SDS011;6566;57.702;11.984;2022-09-12T16:42:17;2.58;;;2.30;;
13002;SDS011;6566;57.702;11.984;2022-09-12T16:44:45;3.55;;;2.25;;
13002;SDS011;6566;57.702;11.984;2022-09-12T16:47:14;4.00;;;2.20;;
13002;SDS011;6566;57.702;11.984;2022-09-12T16:49:41;2.90;;;2.25;;
13002;SDS011;6566;57.702;11.984;2022-09-12T16:52:08;4.13;;;2.13;;
13002;SDS011;6566;57.702;11.984;2022-09-12T16:54:34;3.95;;;2.17;;
13002;SDS011;6566;57.702;11.984;2022-09-12T16:57:01;3.88;;;1.98;;
13002;SDS011;6566;57.702;11.984;2022-09-12T16:59:30;5.20;;;2.38;;
13002;SDS011;6566;57.702;11.984;2022-09-12T17:01:56;3.60;;;2.00;;
13002;SDS011;6566;57.702;11.984;2022-09-12T17:04:23;4.20;;;2.20;;
13002;SDS011;6566;57.702;11.984;2022-09-12T17:06:49;6.00;;;2.60;;
13002;SDS011;6566;57.702;11.984;2022-09-12T17:09:16;4.03;;;2.03;;
13002;SDS011;6566;57.702;11.984;2022-09-12T17:11:44;3.92;;;2.05;;
13002;SDS011;6566;57.702;11.984;2022-09-12T17:14:12;4.72;;;2.10;;
13002;SDS011;6566;57.702;11.984;2022-09-12T17:16:41;3.45;;;2.15;;
13002;SDS011;6566;57.702;11.984;2022-09-12T17:19:09;2.47;;;2.15;;
13002;SDS011;6566;57.702;11.984;2022-09-12T17:21:40;2.75;;;2.22;;
13002;SDS011;6566;57.702;11.984;2022-09-12T17:24:07;3.88;;;2.13;;
13002;SDS011;6566;57.702;11.984;2022-09-12T17:26:33;2.55;;;2.10;;
13002;SDS011;6566;57.702;11.984;2022-09-12T17:29:00;3.35;;;1.90;;
13002;SDS011;6566;57.702;11.984;2022-09-12T17:31:27;4.30;;;2.20;;
13002;SDS011;6566;57.702;11.984;2022-09-12T17:33:57;4.35;;;2.00;;
13002;SDS011;6566;57.702;11.984;2022-09-12T17:36:23;7.22;;;2.30;;
13002;SDS011;6566;57.702;11.984;2022-09-12T17:38:50;4.43;;;2.20;;
13002;SDS011;6566;57.702;11.984;2022-09-12T17:41:19;3.85;;;1.80;;
13002;SDS011;6566;57.702;11.984;2022-09-12T17:43:46;4.78;;;1.98;;
13002;SDS011;6566;57.702;11.984;2022-09-12T17:46:16;3.65;;;1.98;;